Flight Track Log - Related Links

Times and Time Zones

All times are in EDT time to prevent confusion due to time zone crossing. See the N27XP flight status page for this flight to view local times or setup timezone preferences in your user account.

Time Position Orientation Groundspeed Altitude Reporting Facility
EDT Latitude Longitude Course Direction KTS MPH feet Rate Location/Type
Tue 19:12:37 35.5247 -81.0278 87° East 277 319 3,000  Level Atlanta Center
Tue 19:12:55 35.5261 -80.9997 87° East 279 321 3,000 1,367 Level Atlanta Center
Tue 19:13:56 35.5217 -80.9028 93° East 272 313 4,800 984 Climbing Atlanta Center
Tue 19:14:57 35.5131 -80.8086 96° East 279 321 5,000 545 Climbing Atlanta Center
Tue 19:15:57 35.4900 -80.7228 108° East 267 307 5,900 942 Climbing Atlanta Center
Tue 19:16:58 35.4667 -80.6319 107° East 274 315 6,900 537 Climbing Atlanta Center
Tue 19:18:11 35.4403 -80.5158 106° East 290 334 7,100  Climbing Atlanta Center
Tue 19:19:05 35.4214 -80.4378 107° East 288 331 6,900 -50 Descending Atlanta Center
Tue 19:20:12 35.3972 -80.3267 105° East 291 335 7,000 90 Climbing Atlanta Center
Tue 19:22:00 35.3778 -80.2557 109° East  Level FlightAware Approximate
Tue 19:29:00 35.3167 -79.9738 90° East  Level FlightAware Approximate
Tue 19:30:00 35.3145 -79.9325 99° East  Level FlightAware Approximate
Tue 19:31:00 35.3094 -79.8914 99° East  Level FlightAware Approximate
Tue 19:32:00 35.3042 -79.8504 99° East  Level FlightAware Approximate
Tue 19:33:00 35.2984 -79.8095 105° East  Level FlightAware Approximate
Tue 19:34:00 35.2895 -79.7694 105° East  Level FlightAware Approximate
Tue 19:35:00 35.2806 -79.7294 105° East  Level FlightAware Approximate
Tue 19:36:00 35.2717 -79.6893 105° East  Level FlightAware Approximate
Tue 19:37:00 35.2667 -79.6487 90° East  Level FlightAware Approximate
Tue 19:38:00 35.2667 -79.6071 90° East  Level FlightAware Approximate
Tue 19:39:00 35.2520 -79.5707 121° Southeast  Level FlightAware Approximate
Tue 19:40:00 35.2448 -79.5304 100° East  Level FlightAware Approximate
Tue 19:41:00 35.2390 -79.4895 100° East  Level FlightAware Approximate
Tue 19:42:00 35.2333 -79.4486 90° East  Level FlightAware Approximate
Tue 19:43:00 35.2333 -79.4072 90° East  Level FlightAware Approximate
Tue 19:44:00 35.2333 -79.3833 90° East  Level FlightAware Approximate
Tue 19:45:00 35.2380 -79.3883 90° East  Level Estimated
Tue 19:46:00 35.2333 -79.3833 90° East  Level FlightAware Approximate
Tue 19:47:00 35.2380 -79.3883 90° East  Level Estimated
Tue 19:48:00 35.2333 -79.3833 90° East  Level FlightAware Approximate
Tue 19:49:00 35.2380 -79.3883 90° East  Level Estimated
Tue 19:50:00 35.2333 -79.3833 90° East  Level FlightAware Approximate
Tue 19:51:00 35.2380 -79.3883 90° East  Level Estimated
Tue 19:52:00 35.2333 -79.3833 90° East  Level FlightAware Approximate
Tue 19:53:00 35.2380 -79.3883 90° East  Level Estimated
Tue 19:54:00 35.2333 -79.3833 90° East  Level FlightAware Approximate
Tue 19:55:00 35.2380 -79.3883 90° East  Level Estimated
Tue 19:56:00 35.2333 -79.3833 90° East  Level FlightAware Approximate
Tue 19:57:00 35.2380 -79.3883 90° East  Level Estimated
Tue 19:58:00 35.2333 -79.3833 90° East  Level FlightAware Approximate
Tue 19:59:00 35.2380 -79.3883 90° East  Level Estimated
Tue 20:00:00 35.2333 -79.3833 90° East  Level FlightAware Approximate
Tue 20:01:00 35.2380 -79.3883 90° East  Level Estimated
Tue 20:02:00 35.2333 -79.3833 90° East  Level FlightAware Approximate
Tue 20:03:00 35.2380 -79.3883 90° East  Level Estimated
Tue 20:04:00 35.2333 -79.3833 90° East  Level FlightAware Approximate

Login

Don't have an account? Register now (free) for customized features, flight alerts, and more!